Impacts TAF Board INFO
FOR SITUATIONAL AWARENESS. NOT TO BE USED FOR FLIGHT PLANNING PURPOSES.
IDs:

KLAX - Los Angeles Intl, CA, US

Issued at 1731 UTC 20 Jan 2018
Updated at 2044 UTC 20 Jan 2018
Potential Impact None Slight Moderate High
Time1953Z 20/21Z 20/22Z 20/23Z 21/00Z 21/01Z 21/02Z 21/03Z 21/04Z 21/05Z 21/06Z 21/07Z 21/08Z 21/09Z>>
Type OBS PRVL PRVL PRVL PRVL PRVL PRVL PRVL PRVL PRVL PRVL PRVL PRVL PRVL
VIS 10 >6 >6 >6 >6 >6 >6 >6 >6 >6 >6 >6 >6 >6
CIG -- -- -- -- -- -- -- -- -- -- -- -- -- --
Cover SCT SKC SKC SKC SKC SKC SKC SKC SKC SKC SKC SKC SKC SKC
FltCat VFR VFR VFR VFR VFR VFR VFR VFR VFR VFR VFR VFR VFR VFR
WX -- -- -- -- -- -- -- -- -- -- -- -- -- --
WDir 320 280 280 280 280 280 280 290 290 310 310 350 350 350
WSpd 16 22 22 22 22 22 22 15 15 8 8 6 6 6
WGst 23 32 32 32 32 32 32 -- -- -- -- -- -- --

Raw TAF
KLAX 201731Z 2018/2124 35015G25KT P6SM SCT120 BKN200
  FM202000 28022G32KT P6SM SKC
  FM210300 29015KT P6SM SKC
  FM210500 31008KT P6SM SKC
  FM210700 35006KT P6SM SKC
  FM211100 03005KT P6SM SKC
  FM211400 VRB03KT P6SM SKC
  FM212000 26011KT P6SM SKC


Raw METAR
KLAX 201953Z 32016G23KT 10SM FEW045 FEW090 SCT120 16/M03 A3005 RMK AO2 SLP175 T01611028
KLAX 201853Z 34017G24KT 10SM FEW045 FEW090 SCT120 SCT180 16/M02 A3006 RMK AO2 SLP180 T01561017
KLAX 201753Z 34015G23KT 10SM FEW090 FEW120 SCT180 14/M01 A3006 RMK AO2 SLP179 T01441011 10150 20117 53025

METAR Board
Radar Display
Forecast Discussion

FOR SITUATIONAL AWARENESS. NOT TO BE USED FOR FLIGHT PLANNING PURPOSES.